Time;durP1;ratioP1;P1;durP2;ratioP2;P2;SDS_P1;SDS_P2;PMS_P1;PMS_P2;Temp;Humidity;BMP_temperature;BMP_pressure;BME280_temperature;BME280_humidity;BME280_pressure;Samples;Min_cycle;Max_cycle;Signal;HPM_P1;HPM_P2
2022/06/11 00:00:56;;;;;;;5.13;2.57;;;17.00;99.90;;;;;;5097294;28;20054;-68
2022/06/11 00:03:22;;;;;;;7.28;2.72;;;17.00;99.90;;;;;;5078833;28;20290;-68
2022/06/11 00:05:47;;;;;;;6.45;1.95;;;17.00;99.90;;;;;;5079614;28;20474;-68
2022/06/11 00:08:13;;;;;;;3.63;1.65;;;17.00;99.90;;;;;;5097226;28;20117;-68
2022/06/11 00:10:39;;;;;;;3.97;2.03;;;17.00;99.90;;;;;;5079017;28;20448;-68
2022/06/11 00:13:05;;;;;;;7.07;2.10;;;17.00;99.90;;;;;;5066448;28;20067;-68
2022/06/11 00:15:31;;;;;;;13.80;2.08;;;17.10;99.90;;;;;;5058954;28;20076;-68
2022/06/11 00:17:57;;;;;;;4.00;1.80;;;17.10;99.90;;;;;;5058801;28;20059;-68
2022/06/11 00:20:25;;;;;;;8.80;2.28;;;17.00;99.90;;;;;;5058934;28;20048;-68
2022/06/11 00:22:51;;;;;;;6.40;1.92;;;17.00;99.90;;;;;;5059215;28;20106;-68
2022/06/11 00:25:18;;;;;;;3.67;1.55;;;16.90;99.90;;;;;;5076421;28;20037;-67
2022/06/11 00:27:44;;;;;;;3.00;1.58;;;16.90;99.90;;;;;;5087724;28;20047;-68
2022/06/11 00:30:11;;;;;;;4.78;1.75;;;16.70;99.90;;;;;;5079046;28;20051;-68
2022/06/11 00:32:39;;;;;;;3.33;1.52;;;16.70;99.90;;;;;;5078693;28;20109;-68
2022/06/11 00:35:07;;;;;;;4.75;1.55;;;16.60;99.90;;;;;;5096390;28;20043;-68
2022/06/11 00:37:32;;;;;;;3.50;1.60;;;16.60;99.90;;;;;;5078731;28;20051;-67
2022/06/11 00:39:58;;;;;;;5.80;1.70;;;16.60;99.90;;;;;;5096618;28;20052;-68
2022/06/11 00:42:30;;;;;;;4.95;1.48;;;16.60;99.90;;;;;;5073786;28;20047;-68
2022/06/11 00:45:22;;;;;;;6.10;2.10;;;16.50;99.90;;;;;;5077096;28;20357;-68
2022/06/11 00:48:13;;;;;;;4.10;1.45;;;16.40;99.90;;;;;;5096212;28;20391;-67
2022/06/11 00:50:54;;;;;;;5.53;1.90;;;16.40;99.90;;;;;;5096270;28;20059;-68
2022/06/11 00:53:42;;;;;;;4.63;1.98;;;16.30;99.90;;;;;;5077941;28;20467;-68
2022/06/11 00:56:32;;;;;;;5.05;1.33;;;16.30;99.90;;;;;;5078375;28;20055;-68
2022/06/11 00:59:00;;;;;;;6.45;1.48;;;16.30;99.90;;;;;;5057405;28;20110;-67
2022/06/11 01:01:28;;;;;;;4.72;1.52;;;16.20;99.90;;;;;;5057947;28;20041;-68
2022/06/11 01:03:57;;;;;;;3.17;1.25;;;16.20;99.90;;;;;;5057339;28;20045;-68
2022/06/11 01:06:31;;;;;;;2.78;1.30;;;16.10;99.90;;;;;;5058355;28;20052;-68
2022/06/11 01:08:56;;;;;;;;;;;16.00;99.90;;;;;;5058650;28;20048;-67
2022/06/11 01:11:41;;;;;;;6.70;1.42;;;16.00;99.90;;;;;;5057870;28;20264;-68
2022/06/11 01:14:41;;;;;;;5.28;1.30;;;15.90;99.90;;;;;;5057703;28;20059;-68
2022/06/11 01:17:14;;;;;;;4.05;1.05;;;15.80;99.90;;;;;;5058083;28;20044;-68
2022/06/11 01:19:59;;;;;;;10.88;2.03;;;15.90;99.90;;;;;;5057948;28;20347;-68
2022/06/11 01:23:02;;;;;;;5.10;1.40;;;15.70;99.90;;;;;;5076380;28;20041;-69
2022/06/11 01:25:35;;;;;;;4.03;1.60;;;15.70;99.90;;;;;;5058032;28;20049;-68
2022/06/11 01:28:07;;;;;;;5.45;1.33;;;15.60;99.90;;;;;;5057477;28;20483;-68
2022/06/11 01:31:16;;;;;;;8.35;1.95;;;15.60;99.90;;;;;;5074713;28;20045;-68
2022/06/11 01:33:54;;;;;;;6.10;1.50;;;15.50;99.90;;;;;;5058043;28;20193;-68
2022/06/11 01:36:29;;;;;;;5.78;1.77;;;15.40;99.90;;;;;;5057757;28;20055;-68
2022/06/11 01:39:05;;;;;;;9.18;1.77;;;15.30;99.90;;;;;;5057625;28;20124;-67
2022/06/11 01:41:54;;;;;;;3.53;1.48;;;15.30;99.90;;;;;;5057212;28;20487;-68
2022/06/11 01:44:26;;;;;;;3.95;1.40;;;15.30;99.90;;;;;;5057179;28;20119;-68
2022/06/11 01:46:54;;;;;;;2.42;1.27;;;15.20;99.90;;;;;;5057551;28;20551;-68
2022/06/11 01:49:19;;;;;;;3.25;1.35;;;15.20;99.90;;;;;;5057856;28;20044;-67
2022/06/11 01:51:58;;;;;;;6.97;2.13;;;15.10;99.90;;;;;;5064719;28;20059;-68
2022/06/11 01:54:53;;;;;;;6.65;1.70;;;15.00;99.90;;;;;;5060333;28;20097;-68
2022/06/11 01:57:51;;;;;;;7.05;1.90;;;15.00;99.90;;;;;;5094294;28;20066;-67
2022/06/11 02:00:28;;;;;;;3.90;1.85;;;14.90;99.90;;;;;;5077034;28;20048;-68
2022/06/11 02:03:09;;;;;;;5.45;1.42;;;14.80;99.90;;;;;;5095099;28;20441;-68
2022/06/11 02:06:05;;;;;;;4.32;1.70;;;14.80;99.90;;;;;;5095282;28;20055;-67
2022/06/11 02:08:56;;;;;;;7.40;3.58;;;14.80;99.90;;;;;;5095139;28;20048;-68
2022/06/11 02:11:32;;;;;;;14.25;6.43;;;14.80;99.90;;;;;;5076873;28;20076;-68
2022/06/11 02:14:34;;;;;;;10.30;4.15;;;14.90;99.90;;;;;;5073161;28;20060;-68
2022/06/11 02:17:11;;;;;;;17.67;3.50;;;15.00;99.90;;;;;;5056840;28;20048;-68
2022/06/11 02:19:45;;;;;;;8.73;2.88;;;14.90;99.90;;;;;;5057104;28;20048;-68
2022/06/11 02:22:34;;;;;;;8.98;2.90;;;14.90;99.90;;;;;;5057319;28;20049;-68
2022/06/11 02:25:11;;;;;;;8.80;2.17;;;14.80;99.90;;;;;;5057281;28;20044;-68
2022/06/11 02:27:39;;;;;;;4.82;2.17;;;14.70;99.90;;;;;;5057138;28;20063;-68
2022/06/11 02:30:08;;;;;;;5.07;1.50;;;14.70;99.90;;;;;;5083037;28;20173;-68
2022/06/11 02:32:34;;;;;;;8.05;1.90;;;14.60;99.90;;;;;;5094618;28;20043;-68
2022/06/11 02:35:04;;;;;;;5.45;1.85;;;14.50;99.90;;;;;;5077007;28;20048;-68
2022/06/11 02:37:40;;;;;;;7.53;2.08;;;14.50;99.90;;;;;;5076837;28;20048;-69
2022/06/11 02:40:16;;;;;;;8.82;3.50;;;14.50;99.90;;;;;;5076837;28;20456;-67
2022/06/11 02:42:43;;;;;;;10.90;3.00;;;14.50;99.90;;;;;;5096469;28;20474;-68
2022/06/11 02:45:12;;;;;;;6.13;2.70;;;14.50;99.90;;;;;;5060736;28;20053;-68
2022/06/11 02:47:40;;;;;;;7.90;2.85;;;14.50;99.90;;;;;;5060487;28;20052;-67
2022/06/11 02:50:07;;;;;;;8.25;2.20;;;14.40;99.90;;;;;;5078019;28;20055;-68
2022/06/11 02:52:33;;;;;;;12.90;1.95;;;14.30;99.90;;;;;;5060003;28;20060;-68
2022/06/11 02:54:59;;;;;;;6.00;2.60;;;14.40;99.90;;;;;;5078453;28;20062;-67
2022/06/11 02:57:29;;;;;;;7.63;2.05;;;14.30;99.90;;;;;;5060208;28;20128;-68
2022/06/11 02:59:55;;;;;;;4.00;2.25;;;14.30;99.90;;;;;;5078146;28;20468;-67
2022/06/11 03:02:22;;;;;;;6.00;1.85;;;14.20;99.90;;;;;;5060566;28;20044;-68
2022/06/11 03:04:48;;;;;;;3.75;1.70;;;14.20;99.90;;;;;;5078105;28;20127;-68
2022/06/11 03:07:13;;;;;;;4.03;2.03;;;14.20;99.90;;;;;;5060323;28;20136;-68
2022/06/11 03:09:40;;;;;;;7.80;2.42;;;14.20;99.90;;;;;;5077795;28;20083;-67
2022/06/11 03:12:08;;;;;;;3.92;1.67;;;14.30;99.90;;;;;;5060104;28;20083;-68
2022/06/11 03:14:34;;;;;;;5.20;2.30;;;14.20;99.90;;;;;;5059603;28;20052;-68
2022/06/11 03:17:00;;;;;;;4.60;1.73;;;14.20;99.90;;;;;;5059979;28;20040;-68
2022/06/11 03:19:26;;;;;;;13.63;3.25;;;14.30;99.90;;;;;;5077562;28;20468;-68
2022/06/11 03:21:55;;;;;;;6.53;2.20;;;14.30;99.90;;;;;;5077885;28;20036;-67
2022/06/11 03:24:22;;;;;;;6.68;1.85;;;14.30;99.90;;;;;;5077849;28;20044;-68
2022/06/11 03:26:49;;;;;;;5.32;2.30;;;14.30;99.90;;;;;;5059789;28;20476;-68
2022/06/11 03:29:15;;;;;;;4.97;2.22;;;14.40;99.90;;;;;;5086410;28;21285;-67
2022/06/11 03:31:43;;;;;;;10.88;3.05;;;14.40;99.90;;;;;;5117554;28;20039;-67
2022/06/11 03:34:09;;;;;;;4.80;2.22;;;14.40;99.90;;;;;;5118129;28;20410;-67
2022/06/11 03:36:35;;;;;;;15.30;3.50;;;14.40;99.90;;;;;;5083439;28;20047;-67
2022/06/11 03:39:01;;;;;;;12.20;2.83;;;14.40;99.90;;;;;;5117927;28;20108;-67
2022/06/11 03:41:27;;;;;;;4.95;2.33;;;14.40;99.90;;;;;;5100342;28;20051;-68
2022/06/11 03:43:52;;;;;;;9.05;2.35;;;14.50;99.90;;;;;;5074315;28;20121;-67
2022/06/11 03:46:19;;;;;;;9.23;3.30;;;14.50;99.90;;;;;;5059333;28;20048;-67
2022/06/11 03:48:45;;;;;;;9.32;2.65;;;14.50;99.90;;;;;;5059464;28;20056;-67
2022/06/11 03:51:11;;;;;;;6.80;3.00;;;14.60;99.90;;;;;;5059753;28;20044;-67
2022/06/11 03:53:38;;;;;;;6.43;2.35;;;14.60;99.90;;;;;;5058517;28;20048;-68
2022/06/11 03:56:06;;;;;;;10.02;2.40;;;14.70;99.90;;;;;;5077214;28;20041;-67
2022/06/11 03:58:32;;;;;;;11.35;2.15;;;14.70;99.90;;;;;;5076313;28;20052;-68
2022/06/11 04:01:16;;;;;;;4.32;2.30;;;14.70;99.90;;;;;;5078807;28;20044;-68
2022/06/11 04:03:47;;;;;;;9.23;2.90;;;14.80;99.90;;;;;;5096919;28;20048;-67
2022/06/11 04:06:13;;;;;;;8.05;2.45;;;15.00;99.90;;;;;;5062353;28;20047;-68
2022/06/11 04:08:40;;;;;;;10.38;2.85;;;15.00;99.90;;;;;;5079433;28;20464;-68
2022/06/11 04:11:07;;;;;;;14.68;3.50;;;15.10;99.90;;;;;;5079146;28;20040;-68
2022/06/11 04:13:38;;;;;;;10.45;2.90;;;15.00;99.90;;;;;;5081249;28;20087;-68
2022/06/11 04:16:05;;;;;;;9.27;2.63;;;15.10;99.90;;;;;;5059217;28;20055;-68
2022/06/11 04:18:39;;;;;;;7.85;2.45;;;15.10;99.90;;;;;;5058574;28;20044;-68
2022/06/11 04:21:09;;;;;;;7.80;2.22;;;15.10;99.90;;;;;;5075822;28;20060;-68
2022/06/11 04:23:37;;;;;;;8.02;2.50;;;15.10;99.90;;;;;;5059163;28;20411;-68
2022/06/11 04:26:08;;;;;;;7.20;2.45;;;15.10;99.90;;;;;;5058668;28;20053;-69
2022/06/11 04:28:35;;;;;;;7.75;2.50;;;15.20;99.90;;;;;;5058834;28;20040;-67
2022/06/11 04:31:02;;;;;;;7.68;2.50;;;15.20;99.90;;;;;;5058937;28;20049;-68
2022/06/11 04:33:28;;;;;;;6.78;3.05;;;15.30;99.90;;;;;;5076265;28;20194;-67
2022/06/11 04:35:54;;;;;;;7.95;3.05;;;15.30;99.90;;;;;;5059001;28;20080;-68
2022/06/11 04:38:20;;;;;;;5.55;3.20;;;15.40;99.90;;;;;;5058490;28;20122;-68
2022/06/11 04:40:47;;;;;;;12.15;4.57;;;15.40;99.90;;;;;;5058613;28;20453;-68
2022/06/11 04:43:13;;;;;;;7.47;3.25;;;15.50;99.90;;;;;;5059472;28;20064;-68
2022/06/11 04:45:39;;;;;;;8.80;4.25;;;15.50;99.90;;;;;;5087061;28;20127;-67
2022/06/11 04:48:04;;;;;;;9.63;3.83;;;15.70;99.90;;;;;;5062644;28;20072;-69
2022/06/11 04:50:30;;;;;;;7.68;3.20;;;15.70;99.90;;;;;;5086611;28;20036;-68
2022/06/11 04:52:56;;;;;;;7.82;3.65;;;15.80;99.90;;;;;;5078075;28;20520;-68
2022/06/11 04:55:22;;;;;;;6.25;3.60;;;15.90;99.90;;;;;;5074388;28;20131;-68
2022/06/11 04:57:47;;;;;;;7.22;3.72;;;15.90;99.90;;;;;;5058227;28;20080;-68
2022/06/11 05:00:18;;;;;;;6.82;3.22;;;16.00;99.90;;;;;;5075554;28;20055;-68
2022/06/11 05:02:45;;;;;;;11.95;3.10;;;16.10;99.90;;;;;;5075838;28;20419;-68
2022/06/11 05:05:11;;;;;;;16.15;4.10;;;16.20;99.90;;;;;;5074946;28;20124;-68
2022/06/11 05:07:37;;;;;;;10.88;3.22;;;16.20;99.90;;;;;;5075765;28;20048;-68
2022/06/11 05:10:04;;;;;;;7.90;3.00;;;16.20;99.90;;;;;;5057894;28;20041;-68
2022/06/11 05:12:30;;;;;;;18.25;3.42;;;16.50;99.90;;;;;;5058578;28;20473;-68
2022/06/11 05:14:55;;;;;;;10.52;2.70;;;17.50;99.90;;;;;;5058463;28;20091;-68
2022/06/11 05:17:21;;;;;;;11.15;3.78;;;18.60;99.90;;;;;;5057543;28;20403;-68
2022/06/11 05:19:47;;;;;;;8.00;2.97;;;19.70;99.90;;;;;;5057771;28;20051;-68
2022/06/11 05:22:12;;;;;;;8.50;2.70;;;20.80;99.90;;;;;;5075347;28;20040;-68
2022/06/11 05:24:38;;;;;;;8.23;3.25;;;21.60;99.90;;;;;;5040903;28;20048;-69
2022/06/11 05:27:14;;;;;;;6.65;2.67;;;22.30;99.90;;;;;;5057164;28;20036;-68
2022/06/11 05:29:49;;;;;;;7.10;3.30;;;23.00;99.90;;;;;;5057609;28;20052;-68
2022/06/11 05:32:16;;;;;;;8.23;2.50;;;23.60;99.90;;;;;;5057454;28;20075;-68
2022/06/11 05:34:42;;;;;;;10.98;2.85;;;23.90;99.90;;;;;;5075197;28;20051;-68
2022/06/11 05:37:09;;;;;;;5.95;2.42;;;24.30;99.90;;;;;;5074518;28;20384;-68
2022/06/11 05:39:34;;;;;;;8.15;2.70;;;24.70;99.90;;;;;;5074730;28;20453;-68
2022/06/11 05:42:00;;;;;;;6.75;2.60;;;24.80;99.90;;;;;;5058105;28;20058;-69
2022/06/11 05:44:25;;;;;;;5.57;2.50;;;25.10;99.90;;;;;;5057373;28;20060;-68
2022/06/11 05:46:53;;;;;;;12.43;2.83;;;25.40;99.90;;;;;;5057448;28;20141;-68
2022/06/11 05:49:23;;;;;;;13.75;2.63;;;26.00;99.90;;;;;;5074466;28;20423;-69
2022/06/11 05:52:01;;;;;;;8.35;2.40;;;26.20;99.90;;;;;;5074848;28;20056;-69
2022/06/11 05:54:30;;;;;;;7.80;2.35;;;26.60;99.90;;;;;;5057896;28;20095;-68
2022/06/11 05:56:56;;;;;;;6.05;1.80;;;26.80;99.90;;;;;;5057517;28;20476;-69
2022/06/11 05:59:26;;;;;;;11.00;3.70;;;26.60;99.90;;;;;;5057215;28;20557;-69
2022/06/11 06:01:54;;;;;;;6.07;2.13;;;26.60;99.90;;;;;;5057533;28;20040;-67
2022/06/11 06:04:20;;;;;;;9.30;2.30;;;27.00;99.00;;;;;;5079544;28;20039;-67
2022/06/11 06:06:45;;;;;;;8.88;2.53;;;27.00;99.90;;;;;;5094610;28;20121;-67
2022/06/11 06:09:11;;;;;;;9.73;2.63;;;26.90;99.40;;;;;;5077997;28;20097;-66
2022/06/11 06:11:37;;;;;;;11.73;2.78;;;26.90;98.90;;;;;;5092154;28;20044;-67
2022/06/11 06:14:02;;;;;;;14.80;2.63;;;26.60;98.90;;;;;;5082750;28;20032;-67
2022/06/11 06:16:29;;;;;;;6.65;2.08;;;26.70;98.80;;;;;;5108021;28;20044;-67
2022/06/11 06:18:56;;;;;;;12.13;3.05;;;26.90;99.20;;;;;;5068182;28;20048;-67
2022/06/11 06:21:24;;;;;;;6.95;2.30;;;26.80;99.20;;;;;;5060917;28;20045;-67
2022/06/11 06:23:50;;;;;;;7.43;1.95;;;27.00;98.20;;;;;;5061388;28;20044;-67
2022/06/11 06:26:16;;;;;;;8.18;2.10;;;26.80;98.10;;;;;;5061175;28;20044;-67
2022/06/11 06:28:42;;;;;;;5.60;1.52;;;26.90;98.80;;;;;;5060914;28;20044;-67
2022/06/11 06:31:10;;;;;;;8.68;2.47;;;27.10;98.30;;;;;;5088239;28;20039;-67
2022/06/11 06:33:36;;;;;;;13.35;2.33;;;27.40;98.50;;;;;;5100105;28;20456;-67
2022/06/11 06:36:05;;;;;;;7.20;2.22;;;27.80;98.50;;;;;;5103114;28;20059;-67
2022/06/11 06:38:31;;;;;;;11.48;2.25;;;28.00;97.50;;;;;;5095831;28;20063;-66
2022/06/11 06:40:56;;;;;;;11.55;2.22;;;27.60;97.60;;;;;;5075858;28;20040;-67
2022/06/11 06:43:22;;;;;;;9.77;1.92;;;27.10;97.20;;;;;;5073082;28;20471;-67
2022/06/11 06:45:48;;;;;;;7.88;2.30;;;27.30;98.40;;;;;;5086850;28;20364;-67
2022/06/11 06:48:14;;;;;;;9.25;2.10;;;27.30;97.20;;;;;;5095167;28;20040;-67
2022/06/11 06:50:39;;;;;;;11.38;2.50;;;27.20;96.90;;;;;;5076984;28;20448;-67
2022/06/11 06:53:06;;;;;;;8.93;2.42;;;27.60;97.60;;;;;;5077152;28;20041;-67
2022/06/11 06:55:32;;;;;;;8.85;2.33;;;28.10;97.60;;;;;;5060189;28;20048;-67
2022/06/11 06:57:57;;;;;;;5.88;2.28;;;28.20;97.10;;;;;;5060210;28;20404;-67
2022/06/11 07:00:23;;;;;;;11.45;2.35;;;28.60;97.20;;;;;;5059892;28;20048;-66
2022/06/11 07:02:49;;;;;;;11.43;1.80;;;28.70;97.20;;;;;;5060894;28;20055;-66
2022/06/11 07:05:16;;;;;;;8.00;2.53;;;28.90;96.30;;;;;;5060131;28;20480;-67
2022/06/11 07:07:42;;;;;;;9.30;2.47;;;29.10;96.20;;;;;;5060083;28;20072;-67
2022/06/11 07:10:09;;;;;;;14.13;2.97;;;29.30;95.90;;;;;;5077377;28;20091;-67
2022/06/11 07:12:35;;;;;;;7.03;2.65;;;29.30;95.70;;;;;;5073360;28;20044;-67
2022/06/11 07:15:01;;;;;;;9.90;2.08;;;29.60;95.20;;;;;;5097743;28;20186;-69
2022/06/11 07:17:29;;;;;;;11.35;3.05;;;29.40;94.50;;;;;;5076650;28;20049;-67
2022/06/11 07:20:02;;;;;;;8.95;2.40;;;29.60;94.70;;;;;;5077403;28;20036;-68
2022/06/11 07:22:41;;;;;;;8.23;1.95;;;29.70;94.00;;;;;;5059747;28;20059;-68
2022/06/11 07:25:08;;;;;;;8.70;2.35;;;29.40;94.00;;;;;;5077336;28;20041;-68
2022/06/11 07:27:38;;;;;;;8.75;2.15;;;29.30;93.30;;;;;;5088819;28;20479;-68
2022/06/11 07:30:12;;;;;;;12.15;2.33;;;29.20;93.70;;;;;;5074057;28;20036;-68
2022/06/11 07:32:39;;;;;;;9.45;2.45;;;28.90;94.00;;;;;;5059715;28;20059;-68
2022/06/11 07:35:07;;;;;;;8.02;2.70;;;29.10;93.60;;;;;;5059501;28;20075;-68
2022/06/11 07:37:35;;;;;;;9.18;2.58;;;29.20;94.10;;;;;;5076977;28;20506;-68
2022/06/11 07:40:01;;;;;;;13.23;2.80;;;29.10;94.00;;;;;;5059252;28;20517;-68
2022/06/11 07:42:26;;;;;;;8.30;1.98;;;29.30;92.60;;;;;;5078474;28;20048;-67
2022/06/11 07:44:52;;;;;;;8.52;2.30;;;28.80;94.30;;;;;;5074373;28;20074;-68
2022/06/11 07:50:03;;;;;;;17.15;2.75;;;29.30;93.70;;;;;;5059065;28;20076;-67
2022/06/11 07:52:28;;;;;;;11.48;3.22;;;29.50;93.50;;;;;;5062309;28;20135;-67
2022/06/11 07:54:54;;;;;;;9.02;2.47;;;29.20;92.90;;;;;;5075280;28;20451;-68
2022/06/11 07:57:19;;;;;;;10.68;2.47;;;28.80;93.70;;;;;;5076123;28;20036;-67
2022/06/11 07:59:45;;;;;;;14.40;2.75;;;28.40;94.00;;;;;;5076529;28;20044;-67
2022/06/11 08:02:11;;;;;;;7.10;2.10;;;28.00;94.50;;;;;;5069886;28;20048;-67
2022/06/11 08:04:36;;;;;;;9.52;2.03;;;28.30;95.10;;;;;;5096459;28;20040;-67
2022/06/11 08:07:02;;;;;;;15.45;3.00;;;28.20;94.70;;;;;;5061124;28;20094;-67
2022/06/11 08:09:27;;;;;;;14.63;3.40;;;28.00;94.60;;;;;;5076390;28;20500;-68
2022/06/11 08:11:53;;;;;;;6.22;1.92;;;28.70;93.80;;;;;;5072755;28;20052;-68
2022/06/11 08:14:19;;;;;;;12.05;3.03;;;28.40;94.30;;;;;;5094581;28;20143;-67
2022/06/11 08:16:44;;;;;;;6.63;2.20;;;28.40;93.50;;;;;;5096898;28;20044;-67
2022/06/11 08:19:10;;;;;;;8.57;2.25;;;28.50;93.70;;;;;;5096249;28;20044;-67
2022/06/11 08:21:35;;;;;;;14.32;2.60;;;28.70;93.80;;;;;;5096388;28;20094;-67
2022/06/11 08:24:01;;;;;;;9.88;2.28;;;29.20;94.30;;;;;;5078547;28;20146;-68
2022/06/11 08:26:27;;;;;;;9.63;2.05;;;29.20;93.60;;;;;;5076060;28;20048;-68
2022/06/11 08:28:53;;;;;;;9.10;1.83;;;29.50;93.30;;;;;;5083860;28;20064;-68
2022/06/11 08:31:18;;;;;;;6.70;1.95;;;30.00;93.30;;;;;;5073099;28;20048;-67
2022/06/11 08:33:44;;;;;;;11.75;2.30;;;30.40;93.00;;;;;;5075900;28;20047;-67
2022/06/11 08:36:10;;;;;;;9.60;2.17;;;30.70;92.40;;;;;;5069588;28;20094;-68
2022/06/11 08:38:35;;;;;;;8.05;2.38;;;30.60;91.90;;;;;;5077962;28;20048;-68
2022/06/11 08:41:02;;;;;;;9.70;2.22;;;30.70;91.60;;;;;;5094398;28;20375;-68
2022/06/11 08:43:32;;;;;;;7.18;1.70;;;30.20;90.80;;;;;;5078358;28;20050;-68
2022/06/11 08:46:00;;;;;;;11.70;2.45;;;29.40;91.30;;;;;;5096023;28;20051;-68
2022/06/11 08:48:38;;;;;;;11.68;2.92;;;29.60;93.00;;;;;;5077628;28;20047;-67
2022/06/11 08:51:20;;;;;;;9.00;2.22;;;29.90;92.10;;;;;;5075603;28;20115;-67
2022/06/11 08:53:46;;;;;;;;;;;30.10;91.10;;;;;;5058469;28;20106;-67
2022/06/11 08:56:38;;;;;;;10.65;2.70;;;29.90;91.80;;;;;;5070636;28;19920;-68
2022/06/11 08:59:19;;;;;;;8.27;3.00;;;29.80;92.00;;;;;;5057925;28;20127;-68
2022/06/11 09:01:51;;;;;;;14.13;2.88;;;29.40;92.20;;;;;;5057715;28;20122;-67
2022/06/11 09:04:28;;;;;;;8.40;2.03;;;28.80;92.50;;;;;;5058214;28;20105;-67
2022/06/11 09:07:06;;;;;;;13.48;2.67;;;28.50;92.80;;;;;;5068835;28;20048;-67
2022/06/11 09:09:39;;;;;;;8.82;2.05;;;27.90;92.80;;;;;;5057917;28;20040;-67
2022/06/11 09:12:40;;;;;;;7.57;2.20;;;27.30;93.00;;;;;;5074901;28;20379;-67
2022/06/11 09:15:08;;;;;;;8.20;2.53;;;27.30;94.40;;;;;;5065166;28;20064;-67
2022/06/11 09:17:37;;;;;;;10.68;2.67;;;27.10;94.30;;;;;;5095319;28;20131;-67
2022/06/11 09:20:09;;;;;;;8.55;2.80;;;27.20;93.80;;;;;;5069540;28;20094;-67
2022/06/11 09:22:56;;;;;;;;;;;27.50;94.30;;;;;;5075758;28;20058;-67
2022/06/11 09:25:40;;;;;;;24.58;2.40;;;27.80;94.70;;;;;;5075287;28;19967;-67
2022/06/11 09:28:34;;;;;;;7.68;2.75;;;27.60;93.10;;;;;;5074950;28;20051;-67
2022/06/11 09:31:12;;;;;;;7.82;3.03;;;27.70;94.00;;;;;;5068141;28;20051;-67
2022/06/11 09:33:48;;;;;;;8.48;2.03;;;27.80;93.70;;;;;;5094914;28;20055;-68
2022/06/11 09:36:27;;;;;;;12.85;3.28;;;27.50;92.40;;;;;;5071135;28;20124;-68
2022/06/11 09:39:20;;;;;;;9.38;2.80;;;27.70;93.80;;;;;;5071711;28;20049;-67
2022/06/11 09:42:13;;;;;;;12.18;2.95;;;27.70;92.70;;;;;;5057146;28;20058;-67
2022/06/11 09:44:46;;;;;;;10.38;2.17;;;27.60;92.50;;;;;;5074912;28;20485;-67
2022/06/11 09:47:41;;;;;;;9.63;2.90;;;27.60;92.80;;;;;;5075979;28;20036;-67
2022/06/11 09:50:25;;;;;;;13.32;2.25;;;27.70;93.50;;;;;;5072027;28;20189;-67
2022/06/11 09:53:06;;;;;;;11.02;2.47;;;27.40;92.60;;;;;;5077878;28;20413;-67
2022/06/11 09:55:43;;;;;;;9.05;2.28;;;27.50;92.90;;;;;;5070299;28;20087;-68
2022/06/11 09:58:19;;;;;;;7.65;2.05;;;27.70;92.00;;;;;;5057007;28;20052;-69
2022/06/11 10:00:49;;;;;;;9.15;2.38;;;27.50;92.10;;;;;;5074660;28;20036;-68
2022/06/11 10:05:47;;;;;;;6.85;1.95;;;27.80;92.60;;;;;;5075921;28;20056;-67
2022/06/11 10:08:48;;;;;;;9.48;2.28;;;27.50;91.40;;;;;;5094554;28;20056;-67
2022/06/11 10:11:26;;;;;;;4.88;1.58;;;27.30;90.80;;;;;;5060391;28;20049;-68
2022/06/11 10:13:58;;;;;;;5.80;1.73;;;26.90;91.10;;;;;;5056845;28;20053;-67
2022/06/11 10:16:31;;;;;;;8.18;2.00;;;26.50;92.20;;;;;;5074670;28;20376;-67
2022/06/11 10:19:07;;;;;;;7.65;2.03;;;26.40;90.30;;;;;;5056659;28;20114;-67
2022/06/11 10:21:34;;;;;;;7.60;1.80;;;26.30;91.50;;;;;;5090320;28;20421;-67
2022/06/11 10:24:06;;;;;;;6.13;1.63;;;26.50;92.30;;;;;;5073465;28;20048;-67
2022/06/11 10:26:37;;;;;;;9.32;2.15;;;26.40;92.20;;;;;;5066046;28;20041;-67
2022/06/11 10:29:30;;;;;;;7.18;1.98;;;26.20;91.70;;;;;;5056493;28;20048;-68
2022/06/11 10:31:55;;;;;;;;;;;26.20;91.80;;;;;;5062821;28;20414;-67
2022/06/11 10:34:22;;;;;;;6.22;2.38;;;26.50;91.90;;;;;;5056220;28;19971;-67
2022/06/11 10:36:55;;;;;;;6.45;2.00;;;26.80;91.50;;;;;;5056916;28;20122;-67
2022/06/11 10:39:26;;;;;;;9.63;2.30;;;27.10;92.50;;;;;;5063995;28;20053;-68
2022/06/11 10:42:16;;;;;;;8.93;1.92;;;27.10;91.70;;;;;;5057262;28;20048;-67
2022/06/11 10:44:49;;;;;;;11.40;2.38;;;27.30;91.50;;;;;;5033045;28;20045;-67
2022/06/11 10:47:23;;;;;;;7.07;1.73;;;27.60;92.20;;;;;;5074446;28;20033;-67
2022/06/11 10:50:13;;;;;;;11.93;1.95;;;27.80;91.20;;;;;;5060214;28;20055;-68
2022/06/11 10:52:47;;;;;;;7.88;2.13;;;28.20;90.60;;;;;;5068053;28;20131;-67
2022/06/11 10:55:20;;;;;;;10.90;2.92;;;28.00;87.40;;;;;;5071964;28;20460;-70
2022/06/11 10:57:50;;;;;;;8.52;1.80;;;27.80;87.00;;;;;;5094071;28;20040;-67
2022/06/11 11:00:27;;;;;;;5.18;1.50;;;27.80;86.00;;;;;;5092493;28;20294;-68
2022/06/11 11:03:03;;;;;;;5.60;1.90;;;27.40;84.40;;;;;;5087553;28;20051;-67
2022/06/11 11:05:51;;;;;;;8.90;1.83;;;27.30;86.40;;;;;;5081886;28;20368;-67
2022/06/11 11:08:17;;;;;;;4.72;1.67;;;27.30;86.90;;;;;;5097817;28;20055;-67
2022/06/11 11:10:52;;;;;;;8.30;2.08;;;27.20;87.10;;;;;;5097797;28;20043;-67
2022/06/11 11:13:39;;;;;;;5.53;1.65;;;27.10;85.20;;;;;;5096165;28;20031;-67
2022/06/11 11:16:07;;;;;;;4.57;1.58;;;26.80;81.50;;;;;;5064579;28;20053;-67
2022/06/11 11:18:57;;;;;;;7.80;1.45;;;26.50;83.70;;;;;;5059521;28;20059;-68
2022/06/11 11:22:07;;;;;;;7.30;1.85;;;26.40;87.50;;;;;;5092324;28;20168;-68
2022/06/11 11:24:48;;;;;;;5.53;1.80;;;26.60;85.00;;;;;;5096405;28;20586;-69
2022/06/11 11:27:23;;;;;;;8.18;2.08;;;26.70;87.10;;;;;;5068311;28;20056;-68
2022/06/11 11:29:59;;;;;;;7.45;1.88;;;26.70;85.60;;;;;;5065305;28;20519;-68
2022/06/11 11:32:27;;;;;;;6.35;1.33;;;26.60;83.30;;;;;;5067629;28;20334;-68
2022/06/11 11:34:53;;;;;;;6.78;1.75;;;26.40;84.90;;;;;;5058190;28;20089;-68
2022/06/11 11:37:24;;;;;;;8.05;1.73;;;26.50;87.20;;;;;;5059792;28;20453;-68
2022/06/11 11:39:56;;;;;;;7.10;2.13;;;26.40;85.90;;;;;;5059824;28;20075;-68
2022/06/11 11:42:30;;;;;;;8.88;1.83;;;26.40;85.70;;;;;;5059933;28;20073;-68
2022/06/11 11:44:59;;;;;;;7.50;1.70;;;26.40;84.80;;;;;;5059948;28;20118;-67
2022/06/11 11:47:35;;;;;;;7.57;1.98;;;26.40;86.20;;;;;;5077366;28;20037;-68
2022/06/11 11:50:13;;;;;;;12.10;1.63;;;26.50;83.90;;;;;;5076020;28;20059;-68
2022/06/11 11:52:50;;;;;;;6.60;1.90;;;26.10;84.40;;;;;;5069005;28;20087;-68
2022/06/11 11:55:26;;;;;;;16.50;1.88;;;26.30;87.50;;;;;;5077101;28;20376;-67
2022/06/11 11:58:15;;;;;;;3.58;1.30;;;26.30;84.90;;;;;;5077055;28;20040;-68
2022/06/11 12:00:44;;;;;;;7.28;2.13;;;26.40;83.70;;;;;;5059430;28;20041;-67
2022/06/11 12:03:22;;;;;;;6.22;1.55;;;26.40;82.80;;;;;;5062921;28;20056;-67
2022/06/11 12:05:52;;;;;;;4.90;1.83;;;26.50;85.20;;;;;;5059035;28;20052;-67
2022/06/11 12:08:41;;;;;;;4.00;1.50;;;26.50;83.70;;;;;;5059429;28;20375;-68
2022/06/11 12:11:07;;;;;;;9.52;1.65;;;26.40;83.80;;;;;;5046879;28;20135;-68
2022/06/11 12:13:45;;;;;;;5.90;1.48;;;26.60;83.00;;;;;;5066377;28;20536;-67
2022/06/11 12:16:27;;;;;;;7.78;1.67;;;26.60;84.50;;;;;;5087364;28;20535;-69
2022/06/11 12:19:05;;;;;;;5.95;2.15;;;26.80;83.10;;;;;;5093250;28;20103;-68
2022/06/11 12:21:35;;;;;;;7.80;1.35;;;26.90;82.20;;;;;;5116953;28;20040;-68
2022/06/11 12:24:11;;;;;;;7.55;1.67;;;27.10;84.30;;;;;;5116960;28;20078;-68
2022/06/11 12:26:44;;;;;;;7.57;1.85;;;27.10;83.80;;;;;;5099336;28;20047;-67
2022/06/11 12:29:35;;;;;;;3.88;1.65;;;27.00;82.90;;;;;;5098672;28;20055;-68
2022/06/11 12:32:16;;;;;;;5.10;1.95;;;27.10;81.40;;;;;;5075227;28;20101;-68
2022/06/11 12:34:42;;;;;;;9.35;2.13;;;27.10;81.50;;;;;;5058222;28;20052;-68
2022/06/11 12:37:51;;;;;;;6.57;0.95;;;27.30;85.40;;;;;;5075091;28;20048;-68
2022/06/11 12:40:38;;;;;;;7.20;1.80;;;27.30;85.10;;;;;;4958822;28;20055;-68
2022/06/11 12:43:13;;;;;;;9.07;1.50;;;27.40;84.50;;;;;;4959051;28;20062;-68
2022/06/11 12:46:00;;;;;;;3.63;1.48;;;27.60;82.70;;;;;;5045925;28;20066;-68
2022/06/11 12:48:55;;;;;;;8.93;2.47;;;27.60;83.00;;;;;;5057473;28;20075;-68
2022/06/11 12:51:44;;;;;;;9.48;1.80;;;27.40;83.60;;;;;;5097796;28;20035;-68
2022/06/11 12:54:26;;;;;;;3.90;1.83;;;27.60;83.40;;;;;;5057377;28;20405;-68
2022/06/11 12:57:03;;;;;;;5.07;1.43;;;27.50;81.90;;;;;;5045402;28;20173;-68
2022/06/11 12:59:51;;;;;;;8.13;1.60;;;27.40;82.50;;;;;;5041803;28;20052;-68
2022/06/11 13:02:37;;;;;;;7.10;1.95;;;27.20;82.40;;;;;;5062607;28;20045;-67
2022/06/11 13:05:17;;;;;;;3.95;1.38;;;27.30;83.50;;;;;;5055495;28;20041;-67
2022/06/11 13:07:55;;;;;;;5.07;1.50;;;27.20;82.30;;;;;;5054853;28;20492;-67
2022/06/11 13:10:39;;;;;;;6.88;2.03;;;27.30;81.20;;;;;;5057806;28;20040;-68
2022/06/11 13:13:23;;;;;;;4.35;1.40;;;27.50;83.20;;;;;;5039309;28;20399;-67
2022/06/11 13:16:04;;;;;;;6.88;1.65;;;27.40;79.50;;;;;;5077754;28;20084;-68
2022/06/11 13:18:30;;;;;;;4.18;1.08;;;27.40;81.90;;;;;;5046415;28;20350;-68